This is the latest recevied weather packets stored in our database for station/object K7SKM. If no packets are shown the sender has not sent any weather packets the latest 10 day(s).
| Time | Temp. | Humidity | Pressure | Rain* | Wind** | Luminosity | Snow |
|---|---|---|---|---|---|---|---|
| 1777834292 | 25.56° C | 43% | 1017.8 hPa | 0 mm | - | 416 W/m² | - |
| 1777833988 | 24.44° C | 46% | 1017.8 hPa | 0 mm | - | 408 W/m² | - |
| 1777833685 | 23.89° C | 47% | 1017.9 hPa | 0 mm | - | 406 W/m² | - |
| 1777833381 | 24.44° C | 46% | 1017.8 hPa | 0 mm | - | 407 W/m² | - |
| 1777833078 | 24.44° C | 46% | 1017.9 hPa | 0 mm | - | 402 W/m² | - |
| 1777832776 | 23.33° C | 48% | 1018 hPa | 0 mm | - | 396 W/m² | - |
| 1777832475 | 23.89° C | 46% | 1018 hPa | 0 mm | - | 396 W/m² | - |
| 1777832171 | 23.89° C | 45% | 1018 hPa | 0 mm | - | 392 W/m² | - |
| 1777831868 | 23.89° C | 46% | 1018.2 hPa | 0 mm | - | 381 W/m² | - |
| 1777831565 | 22.78° C | 46% | 1018 hPa | 0 mm | - | 377 W/m² | - |
| 1777831263 | 23.89° C | 47% | 1018 hPa | 0 mm | - | 367 W/m² | - |
| 1777830959 | 22.22° C | 49% | 1018 hPa | 0 mm | - | 359 W/m² | - |
| 1777830657 | 22.22° C | 49% | 1018.2 hPa | 0 mm | - | 354 W/m² | - |
| 1777830354 | 22.22° C | 49% | 1018.2 hPa | 0 mm | - | 348 W/m² | - |
| 1777830050 | 21.67° C | 50% | 1018.3 hPa | 0 mm | - | 343 W/m² | - |
| 1777829745 | 23.33° C | 48% | 1018.2 hPa | 0 mm | - | 342 W/m² | - |
| 1777829442 | 23.89° C | 46% | 1018.2 hPa | 0 mm | - | 335 W/m² | - |
| 1777829139 | 22.78° C | 50% | 1018.4 hPa | 0 mm | - | 326 W/m² | - |
| 1777828836 | 21.67° C | 52% | 1018.5 hPa | 0 mm | - | 319 W/m² | - |
| 1777828533 | 22.22° C | 52% | 1018.5 hPa | 0 mm | - | 315 W/m² | - |
| 1777828230 | 21.67° C | 53% | 1018.5 hPa | 0 mm | - | 307 W/m² | - |
| 1777827926 | 21.11° C | 56% | 1018.5 hPa | 0 mm | - | 298 W/m² | - |
| 1777827624 | 21.11° C | 53% | 1018.4 hPa | 0 mm | - | 295 W/m² | - |
| 1777827321 | 20° C | 57% | 1018.4 hPa | 0 mm | - | 285 W/m² | - |
| 1777827017 | 20.56° C | 57% | 1018.5 hPa | 0 mm | - | 280 W/m² | - |
* Rain latest hour (hover to see other rain measurements)
** Current wind speed in m/s (hover to see current wind gust speed)